sensor_id;sensor_type;location;lat;lon;timestamp;pressure;altitude;pressure_sealevel;temperature
68588;BMP180;55560;52.174;20.996;2023-11-19T00:00:22;101128.20;;;1.80
68588;BMP180;55560;52.174;20.996;2023-11-19T00:03:11;101125.00;;;1.80
68588;BMP180;55560;52.174;20.996;2023-11-19T00:05:41;101125.80;;;1.78
68588;BMP180;55560;52.174;20.996;2023-11-19T00:08:09;101122.80;;;1.70
68588;BMP180;55560;52.174;20.996;2023-11-19T00:10:37;101124.40;;;1.70
68588;BMP180;55560;52.174;20.996;2023-11-19T00:13:04;101126.00;;;1.70
68588;BMP180;55560;52.174;20.996;2023-11-19T00:15:32;101128.60;;;1.66
68588;BMP180;55560;52.174;20.996;2023-11-19T00:18:00;101127.40;;;1.70
68588;BMP180;55560;52.174;20.996;2023-11-19T00:20:32;101125.80;;;1.68
68588;BMP180;55560;52.174;20.996;2023-11-19T00:23:00;101119.60;;;1.70
68588;BMP180;55560;52.174;20.996;2023-11-19T00:25:30;101119.40;;;1.70
68588;BMP180;55560;52.174;20.996;2023-11-19T00:27:57;101122.40;;;1.70
68588;BMP180;55560;52.174;20.996;2023-11-19T00:30:25;101112.20;;;1.70
68588;BMP180;55560;52.174;20.996;2023-11-19T00:32:53;101109.80;;;1.70
68588;BMP180;55560;52.174;20.996;2023-11-19T00:35:22;101107.20;;;1.70
68588;BMP180;55560;52.174;20.996;2023-11-19T00:37:50;101109.00;;;1.70
68588;BMP180;55560;52.174;20.996;2023-11-19T00:40:18;101104.00;;;1.78
68588;BMP180;55560;52.174;20.996;2023-11-19T00:42:49;101090.40;;;1.70
68588;BMP180;55560;52.174;20.996;2023-11-19T00:45:17;101081.00;;;1.72
68588;BMP180;55560;52.174;20.996;2023-11-19T00:47:45;101083.20;;;1.70
68588;BMP180;55560;52.174;20.996;2023-11-19T00:50:13;101080.20;;;1.78
68588;BMP180;55560;52.174;20.996;2023-11-19T00:52:41;101078.20;;;1.70
68588;BMP180;55560;52.174;20.996;2023-11-19T00:55:09;101078.40;;;1.70
68588;BMP180;55560;52.174;20.996;2023-11-19T00:57:38;101077.00;;;1.74
68588;BMP180;55560;52.174;20.996;2023-11-19T01:00:06;101069.20;;;1.76
68588;BMP180;55560;52.174;20.996;2023-11-19T01:02:46;101060.60;;;1.78
68588;BMP180;55560;52.174;20.996;2023-11-19T01:05:14;101059.00;;;1.80
68588;BMP180;55560;52.174;20.996;2023-11-19T01:07:42;101049.80;;;1.80
68588;BMP180;55560;52.174;20.996;2023-11-19T01:10:10;101047.00;;;1.78
68588;BMP180;55560;52.174;20.996;2023-11-19T01:12:39;101038.80;;;1.74
68588;BMP180;55560;52.174;20.996;2023-11-19T01:15:07;101037.40;;;1.78
68588;BMP180;55560;52.174;20.996;2023-11-19T01:17:37;101035.40;;;1.70
68588;BMP180;55560;52.174;20.996;2023-11-19T01:20:05;101028.60;;;1.70
68588;BMP180;55560;52.174;20.996;2023-11-19T01:22:34;101022.20;;;1.70
68588;BMP180;55560;52.174;20.996;2023-11-19T01:25:03;101018.20;;;1.70
68588;BMP180;55560;52.174;20.996;2023-11-19T01:27:33;101016.80;;;1.72
68588;BMP180;55560;52.174;20.996;2023-11-19T01:30:04;101011.40;;;1.72
68588;BMP180;55560;52.174;20.996;2023-11-19T01:32:33;101013.20;;;1.74
68588;BMP180;55560;52.174;20.996;2023-11-19T01:35:00;101025.00;;;1.80
68588;BMP180;55560;52.174;20.996;2023-11-19T01:37:28;101026.40;;;1.80
68588;BMP180;55560;52.174;20.996;2023-11-19T01:39:56;101028.20;;;1.72
68588;BMP180;55560;52.174;20.996;2023-11-19T01:42:26;101024.60;;;1.70
68588;BMP180;55560;52.174;20.996;2023-11-19T01:44:59;101018.20;;;1.70
68588;BMP180;55560;52.174;20.996;2023-11-19T01:47:28;101015.20;;;1.76
68588;BMP180;55560;52.174;20.996;2023-11-19T01:49:57;101010.60;;;1.80
68588;BMP180;55560;52.174;20.996;2023-11-19T01:52:26;101007.20;;;1.80
68588;BMP180;55560;52.174;20.996;2023-11-19T01:54:54;101003.20;;;1.80
68588;BMP180;55560;52.174;20.996;2023-11-19T01:57:22;100998.20;;;1.80
68588;BMP180;55560;52.174;20.996;2023-11-19T01:59:51;100996.20;;;1.80
68588;BMP180;55560;52.174;20.996;2023-11-19T02:02:19;100993.80;;;1.80
68588;BMP180;55560;52.174;20.996;2023-11-19T02:04:50;100989.00;;;1.80
68588;BMP180;55560;52.174;20.996;2023-11-19T02:07:18;100990.80;;;1.80
68588;BMP180;55560;52.174;20.996;2023-11-19T02:09:46;100986.40;;;1.80
68588;BMP180;55560;52.174;20.996;2023-11-19T02:12:14;100984.00;;;1.80
68588;BMP180;55560;52.174;20.996;2023-11-19T02:14:42;100981.80;;;1.78
68588;BMP180;55560;52.174;20.996;2023-11-19T02:17:37;100975.80;;;1.74
68588;BMP180;55560;52.174;20.996;2023-11-19T02:20:07;100971.20;;;1.80
68588;BMP180;55560;52.174;20.996;2023-11-19T02:22:38;100965.40;;;1.80
68588;BMP180;55560;52.174;20.996;2023-11-19T02:25:18;100963.40;;;1.70
68588;BMP180;55560;52.174;20.996;2023-11-19T02:27:54;100956.00;;;1.70
68588;BMP180;55560;52.174;20.996;2023-11-19T02:30:24;100962.40;;;1.70
68588;BMP180;55560;52.174;20.996;2023-11-19T02:32:58;100962.60;;;1.74
68588;BMP180;55560;52.174;20.996;2023-11-19T02:35:28;100959.00;;;1.72
68588;BMP180;55560;52.174;20.996;2023-11-19T02:37:59;100958.00;;;1.80
68588;BMP180;55560;52.174;20.996;2023-11-19T02:40:28;100950.40;;;1.80
68588;BMP180;55560;52.174;20.996;2023-11-19T02:42:56;100947.60;;;1.80
68588;BMP180;55560;52.174;20.996;2023-11-19T02:45:26;100944.80;;;1.80
68588;BMP180;55560;52.174;20.996;2023-11-19T02:47:55;100945.40;;;1.70
68588;BMP180;55560;52.174;20.996;2023-11-19T02:50:23;100944.60;;;1.70
68588;BMP180;55560;52.174;20.996;2023-11-19T02:52:55;100936.80;;;1.70
68588;BMP180;55560;52.174;20.996;2023-11-19T02:55:26;100932.20;;;1.74
68588;BMP180;55560;52.174;20.996;2023-11-19T02:57:56;100921.60;;;1.70
68588;BMP180;55560;52.174;20.996;2023-11-19T03:00:27;100918.00;;;1.80
68588;BMP180;55560;52.174;20.996;2023-11-19T03:03:04;100913.40;;;1.80
68588;BMP180;55560;52.174;20.996;2023-11-19T03:05:46;100912.40;;;1.80
68588;BMP180;55560;52.174;20.996;2023-11-19T03:08:15;100901.00;;;1.80
68588;BMP180;55560;52.174;20.996;2023-11-19T03:10:46;100899.00;;;1.80
68588;BMP180;55560;52.174;20.996;2023-11-19T03:13:14;100900.40;;;1.80
68588;BMP180;55560;52.174;20.996;2023-11-19T03:15:42;100894.00;;;1.80
68588;BMP180;55560;52.174;20.996;2023-11-19T03:18:10;100892.20;;;1.80
68588;BMP180;55560;52.174;20.996;2023-11-19T03:20:37;100887.60;;;1.80
68588;BMP180;55560;52.174;20.996;2023-11-19T03:23:05;100881.00;;;1.80
68588;BMP180;55560;52.174;20.996;2023-11-19T03:25:34;100882.20;;;1.80
68588;BMP180;55560;52.174;20.996;2023-11-19T03:28:02;100875.20;;;1.82
68588;BMP180;55560;52.174;20.996;2023-11-19T03:30:31;100875.80;;;1.80
68588;BMP180;55560;52.174;20.996;2023-11-19T03:33:02;100871.60;;;1.80
68588;BMP180;55560;52.174;20.996;2023-11-19T03:35:30;100864.20;;;1.70
68588;BMP180;55560;52.174;20.996;2023-11-19T03:37:58;100861.40;;;1.70
68588;BMP180;55560;52.174;20.996;2023-11-19T03:40:26;100866.40;;;1.70
68588;BMP180;55560;52.174;20.996;2023-11-19T03:42:56;100863.40;;;1.70
68588;BMP180;55560;52.174;20.996;2023-11-19T03:45:24;100856.20;;;1.70
68588;BMP180;55560;52.174;20.996;2023-11-19T03:47:52;100849.40;;;1.72
68588;BMP180;55560;52.174;20.996;2023-11-19T03:50:20;100852.80;;;1.80
68588;BMP180;55560;52.174;20.996;2023-11-19T03:52:48;100848.20;;;1.80
68588;BMP180;55560;52.174;20.996;2023-11-19T03:55:16;100842.60;;;1.80
68588;BMP180;55560;52.174;20.996;2023-11-19T03:57:44;100838.00;;;1.80
68588;BMP180;55560;52.174;20.996;2023-11-19T04:00:12;100831.60;;;1.80
68588;BMP180;55560;52.174;20.996;2023-11-19T04:02:41;100825.20;;;1.80
68588;BMP180;55560;52.174;20.996;2023-11-19T04:05:09;100822.60;;;1.80
68588;BMP180;55560;52.174;20.996;2023-11-19T04:07:37;100824.40;;;1.74
68588;BMP180;55560;52.174;20.996;2023-11-19T04:10:06;100818.20;;;1.70
68588;BMP180;55560;52.174;20.996;2023-11-19T04:12:35;100818.00;;;1.70
68588;BMP180;55560;52.174;20.996;2023-11-19T04:15:03;100812.20;;;1.70
68588;BMP180;55560;52.174;20.996;2023-11-19T04:17:32;100804.60;;;1.70
68588;BMP180;55560;52.174;20.996;2023-11-19T04:19:59;100802.20;;;1.70
68588;BMP180;55560;52.174;20.996;2023-11-19T04:22:27;100800.20;;;1.70
68588;BMP180;55560;52.174;20.996;2023-11-19T04:24:56;100795.80;;;1.70
68588;BMP180;55560;52.174;20.996;2023-11-19T04:27:24;100789.40;;;1.70
68588;BMP180;55560;52.174;20.996;2023-11-19T04:29:52;100790.40;;;1.80
68588;BMP180;55560;52.174;20.996;2023-11-19T04:32:23;100785.20;;;1.80
68588;BMP180;55560;52.174;20.996;2023-11-19T04:34:51;100771.20;;;1.80
68588;BMP180;55560;52.174;20.996;2023-11-19T04:37:19;100768.60;;;1.80
68588;BMP180;55560;52.174;20.996;2023-11-19T04:39:46;100766.80;;;1.78
68588;BMP180;55560;52.174;20.996;2023-11-19T04:42:14;100764.60;;;1.72
68588;BMP180;55560;52.174;20.996;2023-11-19T04:44:44;100764.80;;;1.70
68588;BMP180;55560;52.174;20.996;2023-11-19T04:47:12;100754.80;;;1.70
68588;BMP180;55560;52.174;20.996;2023-11-19T04:49:41;100761.00;;;1.70
68588;BMP180;55560;52.174;20.996;2023-11-19T04:52:12;100758.40;;;1.64
68588;BMP180;55560;52.174;20.996;2023-11-19T04:54:41;100754.40;;;1.62
68588;BMP180;55560;52.174;20.996;2023-11-19T04:57:10;100750.80;;;1.66
68588;BMP180;55560;52.174;20.996;2023-11-19T04:59:40;100753.40;;;1.66
68588;BMP180;55560;52.174;20.996;2023-11-19T05:02:09;100749.00;;;1.60
68588;BMP180;55560;52.174;20.996;2023-11-19T05:04:37;100742.40;;;1.60
68588;BMP180;55560;52.174;20.996;2023-11-19T05:07:05;100741.00;;;1.60
68588;BMP180;55560;52.174;20.996;2023-11-19T05:09:34;100736.60;;;1.60
68588;BMP180;55560;52.174;20.996;2023-11-19T05:12:02;100728.60;;;1.60
68588;BMP180;55560;52.174;20.996;2023-11-19T05:14:30;100725.00;;;1.60
68588;BMP180;55560;52.174;20.996;2023-11-19T05:16:58;100718.40;;;1.60
68588;BMP180;55560;52.174;20.996;2023-11-19T05:19:26;100720.00;;;1.60
68588;BMP180;55560;52.174;20.996;2023-11-19T05:21:53;100720.20;;;1.60
68588;BMP180;55560;52.174;20.996;2023-11-19T05:24:21;100719.40;;;1.60
68588;BMP180;55560;52.174;20.996;2023-11-19T05:26:49;100712.80;;;1.60
68588;BMP180;55560;52.174;20.996;2023-11-19T05:29:18;100710.60;;;1.60
68588;BMP180;55560;52.174;20.996;2023-11-19T05:31:46;100710.80;;;1.60
68588;BMP180;55560;52.174;20.996;2023-11-19T05:34:15;100709.80;;;1.60
68588;BMP180;55560;52.174;20.996;2023-11-19T05:36:43;100711.80;;;1.60
68588;BMP180;55560;52.174;20.996;2023-11-19T05:39:11;100703.00;;;1.68
68588;BMP180;55560;52.174;20.996;2023-11-19T05:41:39;100699.00;;;1.66
68588;BMP180;55560;52.174;20.996;2023-11-19T05:44:07;100701.40;;;1.68
68588;BMP180;55560;52.174;20.996;2023-11-19T05:46:34;100702.80;;;1.70
68588;BMP180;55560;52.174;20.996;2023-11-19T05:49:11;100707.00;;;1.70
68588;BMP180;55560;52.174;20.996;2023-11-19T05:51:41;100700.60;;;1.70
68588;BMP180;55560;52.174;20.996;2023-11-19T05:54:09;100694.80;;;1.70
68588;BMP180;55560;52.174;20.996;2023-11-19T05:56:37;100694.80;;;1.70
68588;BMP180;55560;52.174;20.996;2023-11-19T05:59:05;100692.20;;;1.74
68588;BMP180;55560;52.174;20.996;2023-11-19T06:01:42;100689.20;;;1.80
68588;BMP180;55560;52.174;20.996;2023-11-19T06:04:10;100692.00;;;1.78
68588;BMP180;55560;52.174;20.996;2023-11-19T06:06:38;100697.40;;;1.80
68588;BMP180;55560;52.174;20.996;2023-11-19T06:09:06;100693.60;;;1.80
68588;BMP180;55560;52.174;20.996;2023-11-19T06:11:37;100697.80;;;1.80
68588;BMP180;55560;52.174;20.996;2023-11-19T06:14:06;100698.20;;;1.80
68588;BMP180;55560;52.174;20.996;2023-11-19T06:16:33;100691.40;;;1.80
68588;BMP180;55560;52.174;20.996;2023-11-19T06:19:01;100686.80;;;1.80
68588;BMP180;55560;52.174;20.996;2023-11-19T06:21:29;100690.20;;;1.80
68588;BMP180;55560;52.174;20.996;2023-11-19T06:23:57;100690.60;;;1.82
68588;BMP180;55560;52.174;20.996;2023-11-19T06:26:26;100689.20;;;1.86
68588;BMP180;55560;52.174;20.996;2023-11-19T06:28:54;100680.40;;;1.82
68588;BMP180;55560;52.174;20.996;2023-11-19T06:31:22;100677.20;;;1.90
68588;BMP180;55560;52.174;20.996;2023-11-19T06:33:49;100677.00;;;1.90
68588;BMP180;55560;52.174;20.996;2023-11-19T06:36:17;100664.40;;;1.84
68588;BMP180;55560;52.174;20.996;2023-11-19T06:38:45;100661.60;;;1.90
68588;BMP180;55560;52.174;20.996;2023-11-19T06:41:13;100658.60;;;1.84
68588;BMP180;55560;52.174;20.996;2023-11-19T06:43:41;100658.40;;;1.90
68588;BMP180;55560;52.174;20.996;2023-11-19T06:46:16;100652.60;;;1.90
68588;BMP180;55560;52.174;20.996;2023-11-19T06:48:44;100649.40;;;1.90
68588;BMP180;55560;52.174;20.996;2023-11-19T06:51:12;100642.00;;;1.90
68588;BMP180;55560;52.174;20.996;2023-11-19T06:53:42;100638.60;;;1.82
68588;BMP180;55560;52.174;20.996;2023-11-19T06:56:23;100631.20;;;1.80
68588;BMP180;55560;52.174;20.996;2023-11-19T06:58:51;100634.20;;;1.80
68588;BMP180;55560;52.174;20.996;2023-11-19T07:01:19;100635.40;;;1.70
68588;BMP180;55560;52.174;20.996;2023-11-19T07:03:48;100628.00;;;1.70
68588;BMP180;55560;52.174;20.996;2023-11-19T07:06:16;100631.80;;;1.70
68588;BMP180;55560;52.174;20.996;2023-11-19T07:08:44;100626.40;;;1.70
68588;BMP180;55560;52.174;20.996;2023-11-19T07:11:13;100622.00;;;1.70
68588;BMP180;55560;52.174;20.996;2023-11-19T07:13:42;100615.80;;;1.70
68588;BMP180;55560;52.174;20.996;2023-11-19T07:16:10;100613.40;;;1.68
68588;BMP180;55560;52.174;20.996;2023-11-19T07:18:38;100614.80;;;1.70
68588;BMP180;55560;52.174;20.996;2023-11-19T07:21:06;100605.80;;;1.70
68588;BMP180;55560;52.174;20.996;2023-11-19T07:23:35;100601.20;;;1.70
68588;BMP180;55560;52.174;20.996;2023-11-19T07:26:05;100600.60;;;1.70
68588;BMP180;55560;52.174;20.996;2023-11-19T07:28:36;100602.80;;;1.70
68588;BMP180;55560;52.174;20.996;2023-11-19T07:31:04;100602.80;;;1.70
68588;BMP180;55560;52.174;20.996;2023-11-19T07:33:32;100604.20;;;1.70
68588;BMP180;55560;52.174;20.996;2023-11-19T07:35:59;100604.60;;;1.70
68588;BMP180;55560;52.174;20.996;2023-11-19T07:38:27;100596.80;;;1.70
68588;BMP180;55560;52.174;20.996;2023-11-19T07:40:55;100595.40;;;1.70
68588;BMP180;55560;52.174;20.996;2023-11-19T07:43:24;100590.60;;;1.70
68588;BMP180;55560;52.174;20.996;2023-11-19T07:45:52;100586.80;;;1.70
68588;BMP180;55560;52.174;20.996;2023-11-19T07:48:20;100581.80;;;1.70
68588;BMP180;55560;52.174;20.996;2023-11-19T07:50:52;100577.00;;;1.80
68588;BMP180;55560;52.174;20.996;2023-11-19T07:53:20;100573.60;;;1.70
68588;BMP180;55560;52.174;20.996;2023-11-19T07:55:47;100575.40;;;1.70
68588;BMP180;55560;52.174;20.996;2023-11-19T07:58:15;100568.40;;;1.70
68588;BMP180;55560;52.174;20.996;2023-11-19T08:00:43;100556.00;;;1.76
68588;BMP180;55560;52.174;20.996;2023-11-19T08:03:11;100555.60;;;1.80
68588;BMP180;55560;52.174;20.996;2023-11-19T08:05:39;100556.80;;;1.80
68588;BMP180;55560;52.174;20.996;2023-11-19T08:08:07;100555.60;;;1.80
68588;BMP180;55560;52.174;20.996;2023-11-19T08:10:35;100549.20;;;1.80
68588;BMP180;55560;52.174;20.996;2023-11-19T08:13:02;100547.80;;;1.80
68588;BMP180;55560;52.174;20.996;2023-11-19T08:15:30;100540.40;;;1.88
68588;BMP180;55560;52.174;20.996;2023-11-19T08:17:59;100538.20;;;1.90
68588;BMP180;55560;52.174;20.996;2023-11-19T08:20:27;100540.00;;;1.90
68588;BMP180;55560;52.174;20.996;2023-11-19T08:22:55;100539.00;;;1.90
68588;BMP180;55560;52.174;20.996;2023-11-19T08:25:22;100535.60;;;1.90
68588;BMP180;55560;52.174;20.996;2023-11-19T08:27:50;100528.80;;;2.00
68588;BMP180;55560;52.174;20.996;2023-11-19T08:30:18;100531.00;;;2.00
68588;BMP180;55560;52.174;20.996;2023-11-19T08:32:47;100521.60;;;2.00
68588;BMP180;55560;52.174;20.996;2023-11-19T08:35:15;100515.60;;;2.00
68588;BMP180;55560;52.174;20.996;2023-11-19T08:37:44;100513.40;;;2.00
68588;BMP180;55560;52.174;20.996;2023-11-19T08:40:13;100505.40;;;2.08
68588;BMP180;55560;52.174;20.996;2023-11-19T08:42:44;100504.40;;;2.10
68588;BMP180;55560;52.174;20.996;2023-11-19T08:45:13;100505.60;;;2.10
68588;BMP180;55560;52.174;20.996;2023-11-19T08:47:40;100504.80;;;2.10
68588;BMP180;55560;52.174;20.996;2023-11-19T08:50:09;100506.60;;;2.10
68588;BMP180;55560;52.174;20.996;2023-11-19T08:52:37;100502.20;;;2.10
68588;BMP180;55560;52.174;20.996;2023-11-19T08:55:05;100505.80;;;2.10
68588;BMP180;55560;52.174;20.996;2023-11-19T08:57:33;100495.40;;;2.10
68588;BMP180;55560;52.174;20.996;2023-11-19T09:00:01;100496.00;;;2.10
68588;BMP180;55560;52.174;20.996;2023-11-19T09:02:30;100488.00;;;2.10
68588;BMP180;55560;52.174;20.996;2023-11-19T09:05:00;100488.40;;;2.18
68588;BMP180;55560;52.174;20.996;2023-11-19T09:07:28;100482.20;;;2.16
68588;BMP180;55560;52.174;20.996;2023-11-19T09:09:56;100480.00;;;2.20
68588;BMP180;55560;52.174;20.996;2023-11-19T09:12:23;100468.20;;;2.20
68588;BMP180;55560;52.174;20.996;2023-11-19T09:14:51;100464.20;;;2.30
68588;BMP180;55560;52.174;20.996;2023-11-19T09:17:19;100460.80;;;2.30
68588;BMP180;55560;52.174;20.996;2023-11-19T09:19:47;100460.40;;;2.40
68588;BMP180;55560;52.174;20.996;2023-11-19T09:22:15;100452.20;;;2.40
68588;BMP180;55560;52.174;20.996;2023-11-19T09:24:44;100449.80;;;2.40
68588;BMP180;55560;52.174;20.996;2023-11-19T09:27:12;100447.40;;;2.48
68588;BMP180;55560;52.174;20.996;2023-11-19T09:29:40;100445.40;;;2.50
68588;BMP180;55560;52.174;20.996;2023-11-19T09:32:08;100437.60;;;2.48
68588;BMP180;55560;52.174;20.996;2023-11-19T09:34:35;100431.80;;;2.40
68588;BMP180;55560;52.174;20.996;2023-11-19T09:37:03;100427.60;;;2.40
68588;BMP180;55560;52.174;20.996;2023-11-19T09:39:31;100423.80;;;2.40
68588;BMP180;55560;52.174;20.996;2023-11-19T09:41:59;100422.80;;;2.40
68588;BMP180;55560;52.174;20.996;2023-11-19T09:44:27;100423.20;;;2.40
68588;BMP180;55560;52.174;20.996;2023-11-19T09:46:55;100421.00;;;2.40
68588;BMP180;55560;52.174;20.996;2023-11-19T09:49:24;100413.60;;;2.40
68588;BMP180;55560;52.174;20.996;2023-11-19T09:51:56;100414.00;;;2.40
68588;BMP180;55560;52.174;20.996;2023-11-19T09:54:25;100414.20;;;2.30
68588;BMP180;55560;52.174;20.996;2023-11-19T09:56:53;100408.40;;;2.32
68588;BMP180;55560;52.174;20.996;2023-11-19T09:59:23;100407.40;;;2.40
68588;BMP180;55560;52.174;20.996;2023-11-19T10:01:51;100402.60;;;2.36
68588;BMP180;55560;52.174;20.996;2023-11-19T10:04:19;100401.60;;;2.30
68588;BMP180;55560;52.174;20.996;2023-11-19T10:06:47;100398.40;;;2.32
68588;BMP180;55560;52.174;20.996;2023-11-19T10:09:16;100387.40;;;2.40
68588;BMP180;55560;52.174;20.996;2023-11-19T10:11:43;100385.00;;;2.30
68588;BMP180;55560;52.174;20.996;2023-11-19T10:14:12;100379.80;;;2.30
68588;BMP180;55560;52.174;20.996;2023-11-19T10:16:40;100379.00;;;2.32
68588;BMP180;55560;52.174;20.996;2023-11-19T10:19:08;100373.00;;;2.40
68588;BMP180;55560;52.174;20.996;2023-11-19T10:21:40;100368.40;;;2.46
68588;BMP180;55560;52.174;20.996;2023-11-19T10:24:08;100361.40;;;2.48
68588;BMP180;55560;52.174;20.996;2023-11-19T10:26:36;100355.00;;;2.50
68588;BMP180;55560;52.174;20.996;2023-11-19T10:29:04;100354.60;;;2.50
68588;BMP180;55560;52.174;20.996;2023-11-19T10:31:32;100354.80;;;2.50
68588;BMP180;55560;52.174;20.996;2023-11-19T10:34:00;100351.40;;;2.50
68588;BMP180;55560;52.174;20.996;2023-11-19T10:36:39;100348.40;;;2.50
68588;BMP180;55560;52.174;20.996;2023-11-19T10:39:11;100344.00;;;2.42
68588;BMP180;55560;52.174;20.996;2023-11-19T10:41:40;100343.80;;;2.40
68588;BMP180;55560;52.174;20.996;2023-11-19T10:44:08;100333.00;;;2.40
68588;BMP180;55560;52.174;20.996;2023-11-19T10:46:41;100322.00;;;2.40
68588;BMP180;55560;52.174;20.996;2023-11-19T10:49:09;100320.60;;;2.34
68588;BMP180;55560;52.174;20.996;2023-11-19T10:51:42;100316.80;;;2.30
68588;BMP180;55560;52.174;20.996;2023-11-19T10:54:12;100310.40;;;2.30
68588;BMP180;55560;52.174;20.996;2023-11-19T10:56:42;100306.20;;;2.38
68588;BMP180;55560;52.174;20.996;2023-11-19T10:59:10;100302.40;;;2.40
68588;BMP180;55560;52.174;20.996;2023-11-19T11:01:45;100293.60;;;2.40
68588;BMP180;55560;52.174;20.996;2023-11-19T11:04:19;100295.40;;;2.40
68588;BMP180;55560;52.174;20.996;2023-11-19T11:06:51;100279.00;;;2.40
68588;BMP180;55560;52.174;20.996;2023-11-19T11:09:19;100276.20;;;2.40
68588;BMP180;55560;52.174;20.996;2023-11-19T11:11:47;100273.20;;;2.40
68588;BMP180;55560;52.174;20.996;2023-11-19T11:14:16;100264.80;;;2.36
68588;BMP180;55560;52.174;20.996;2023-11-19T11:16:44;100253.80;;;2.38
68588;BMP180;55560;52.174;20.996;2023-11-19T11:19:15;100247.40;;;2.30
68588;BMP180;55560;52.174;20.996;2023-11-19T11:21:45;100244.80;;;2.36
68588;BMP180;55560;52.174;20.996;2023-11-19T11:32:33;100224.20;;;2.30
68588;BMP180;55560;52.174;20.996;2023-11-19T11:35:38;100223.00;;;2.26
68588;BMP180;55560;52.174;20.996;2023-11-19T11:38:10;100211.80;;;2.20
68588;BMP180;55560;52.174;20.996;2023-11-19T11:40:38;100205.00;;;2.20
68588;BMP180;55560;52.174;20.996;2023-11-19T11:49:03;100196.40;;;2.30
68588;BMP180;55560;52.174;20.996;2023-11-19T11:57:11;100181.00;;;2.30
68588;BMP180;55560;52.174;20.996;2023-11-19T12:02:15;100169.60;;;2.30
68588;BMP180;55560;52.174;20.996;2023-11-19T12:04:47;100163.20;;;2.30
68588;BMP180;55560;52.174;20.996;2023-11-19T12:07:23;100155.60;;;2.30
68588;BMP180;55560;52.174;20.996;2023-11-19T12:09:55;100151.40;;;2.20
68588;BMP180;55560;52.174;20.996;2023-11-19T12:12:33;100150.00;;;2.26
68588;BMP180;55560;52.174;20.996;2023-11-19T12:15:08;100148.60;;;2.24
68588;BMP180;55560;52.174;20.996;2023-11-19T12:17:43;100142.60;;;2.20
68588;BMP180;55560;52.174;20.996;2023-11-19T12:20:18;100134.20;;;2.20
68588;BMP180;55560;52.174;20.996;2023-11-19T12:23:05;100125.00;;;2.20
68588;BMP180;55560;52.174;20.996;2023-11-19T12:25:35;100120.40;;;2.20
68588;BMP180;55560;52.174;20.996;2023-11-19T12:28:04;100117.40;;;2.22
68588;BMP180;55560;52.174;20.996;2023-11-19T12:30:32;100110.80;;;2.22
68588;BMP180;55560;52.174;20.996;2023-11-19T12:33:10;100110.40;;;2.28
68588;BMP180;55560;52.174;20.996;2023-11-19T12:35:45;100106.80;;;2.26
68588;BMP180;55560;52.174;20.996;2023-11-19T12:38:22;100105.20;;;2.30
68588;BMP180;55560;52.174;20.996;2023-11-19T12:41:07;100105.80;;;2.20
68588;BMP180;55560;52.174;20.996;2023-11-19T12:43:35;100100.80;;;2.30
68588;BMP180;55560;52.174;20.996;2023-11-19T12:46:22;100100.40;;;2.30
68588;BMP180;55560;52.174;20.996;2023-11-19T12:48:51;100092.80;;;2.30
68588;BMP180;55560;52.174;20.996;2023-11-19T12:51:19;100098.00;;;2.30
68588;BMP180;55560;52.174;20.996;2023-11-19T12:53:51;100096.40;;;2.34
68588;BMP180;55560;52.174;20.996;2023-11-19T12:56:22;100098.00;;;2.30
68588;BMP180;55560;52.174;20.996;2023-11-19T12:58:50;100096.80;;;2.30
68588;BMP180;55560;52.174;20.996;2023-11-19T13:01:19;100104.40;;;2.30
68588;BMP180;55560;52.174;20.996;2023-11-19T13:03:48;100094.20;;;2.30
68588;BMP180;55560;52.174;20.996;2023-11-19T13:06:19;100091.60;;;2.30
68588;BMP180;55560;52.174;20.996;2023-11-19T13:08:50;100088.80;;;2.28
68588;BMP180;55560;52.174;20.996;2023-11-19T13:11:31;100087.00;;;2.20
68588;BMP180;55560;52.174;20.996;2023-11-19T13:14:01;100080.60;;;2.20
68588;BMP180;55560;52.174;20.996;2023-11-19T13:16:31;100076.80;;;2.22
68588;BMP180;55560;52.174;20.996;2023-11-19T13:19:02;100071.60;;;2.20
68588;BMP180;55560;52.174;20.996;2023-11-19T13:21:31;100057.60;;;2.20
68588;BMP180;55560;52.174;20.996;2023-11-19T13:23:59;100048.60;;;2.18
68588;BMP180;55560;52.174;20.996;2023-11-19T13:26:26;100045.60;;;2.10
68588;BMP180;55560;52.174;20.996;2023-11-19T13:28:54;100039.20;;;2.10
68588;BMP180;55560;52.174;20.996;2023-11-19T13:31:22;100023.80;;;2.10
68588;BMP180;55560;52.174;20.996;2023-11-19T13:33:50;100021.40;;;2.04
68588;BMP180;55560;52.174;20.996;2023-11-19T13:36:18;100019.80;;;2.06
68588;BMP180;55560;52.174;20.996;2023-11-19T13:38:47;100015.20;;;2.06
68588;BMP180;55560;52.174;20.996;2023-11-19T13:41:15;100011.60;;;2.10
68588;BMP180;55560;52.174;20.996;2023-11-19T13:43:43;100014.00;;;2.10
68588;BMP180;55560;52.174;20.996;2023-11-19T13:46:11;100011.40;;;2.10
68588;BMP180;55560;52.174;20.996;2023-11-19T13:48:39;100008.20;;;2.10
68588;BMP180;55560;52.174;20.996;2023-11-19T13:51:07;99999.00;;;2.00
68588;BMP180;55560;52.174;20.996;2023-11-19T13:53:37;99996.00;;;2.00
68588;BMP180;55560;52.174;20.996;2023-11-19T13:56:08;99986.00;;;2.00
68588;BMP180;55560;52.174;20.996;2023-11-19T13:58:36;99976.00;;;2.00
68588;BMP180;55560;52.174;20.996;2023-11-19T14:01:05;99974.00;;;2.00
68588;BMP180;55560;52.174;20.996;2023-11-19T14:03:34;99974.60;;;2.00
68588;BMP180;55560;52.174;20.996;2023-11-19T14:06:02;99972.60;;;2.00
68588;BMP180;55560;52.174;20.996;2023-11-19T14:08:33;99975.40;;;1.98
68588;BMP180;55560;52.174;20.996;2023-11-19T14:11:00;99968.80;;;2.00
68588;BMP180;55560;52.174;20.996;2023-11-19T14:13:29;99971.20;;;2.00
68588;BMP180;55560;52.174;20.996;2023-11-19T14:15:56;99968.60;;;1.96
68588;BMP180;55560;52.174;20.996;2023-11-19T14:18:24;99960.80;;;1.90
68588;BMP180;55560;52.174;20.996;2023-11-19T14:20:52;99955.00;;;1.90
68588;BMP180;55560;52.174;20.996;2023-11-19T14:23:20;99953.40;;;1.90
68588;BMP180;55560;52.174;20.996;2023-11-19T14:25:48;99949.20;;;1.88
68588;BMP180;55560;52.174;20.996;2023-11-19T14:28:17;99945.00;;;1.86
68588;BMP180;55560;52.174;20.996;2023-11-19T14:30:45;99946.80;;;1.90